Time;durP1;ratioP1;P1;durP2;ratioP2;P2;SDS_P1;SDS_P2;PMS_P1;PMS_P2;Temp;Humidity;BMP_temperature;BMP_pressure;BME280_temperature;BME280_humidity;BME280_pressure;Samples;Min_cycle;Max_cycle;Signal;HPM_P1;HPM_P2
2023/11/19 00:02:29;;;;;;;81.70;60.30;;;;;;;0.95;100.00;101013.55;113003;1239;21964;-81
2023/11/19 00:05:11;;;;;;;74.60;54.00;;;;;;;0.95;100.00;101007.55;113001;1239;23838;-81
2023/11/19 00:07:55;;;;;;;64.40;48.90;;;;;;;0.98;100.00;101004.33;112635;1239;21953;-82
2023/11/19 00:11:16;;;;;;;64.90;49.40;;;;;;;0.99;100.00;101006.23;112666;1239;22003;-81
2023/11/19 00:14:06;;;;;;;66.20;50.20;;;;;;;1.00;100.00;100998.52;112721;1239;21970;-79
2023/11/19 00:16:51;;;;;;;70.60;52.00;;;;;;;1.01;100.00;100995.61;113032;1239;21979;-81
2023/11/19 00:19:57;;;;;;;;;;;;;;;;;;;;;
2023/11/19 00:22:38;;;;;;;66.60;52.00;;;;;;;0.98;100.00;100989.42;112505;1245;23021;-80
2023/11/19 00:25:36;;;;;;;63.40;51.10;;;;;;;0.96;100.00;100985.62;112643;1240;22364;-81
2023/11/19 00:28:24;;;;;;;71.70;54.50;;;;;;;0.92;100.00;100991.91;112743;1241;21962;-80
2023/11/19 00:31:11;;;;;;;75.00;55.30;;;;;;;0.90;100.00;100989.15;112970;1241;22178;-81
2023/11/19 00:34:02;;;;;;;68.90;54.10;;;;;;;0.88;100.00;100984.32;112608;1241;21999;-80
2023/11/19 00:37:15;;;;;;;73.50;56.70;;;;;;;0.83;100.00;100978.95;112867;1241;21992;-81
2023/11/19 00:40:23;;;;;;;77.00;58.80;;;;;;;0.79;100.00;100972.56;112220;1246;22107;-81
2023/11/19 00:43:08;;;;;;;80.10;59.00;;;;;;;0.77;100.00;100970.83;112205;1246;21965;-81
2023/11/19 00:45:59;;;;;;;80.60;60.10;;;;;;;0.76;100.00;100973.39;112189;1246;23707;-82
2023/11/19 00:49:17;;;;;;;74.60;56.50;;;;;;;0.65;100.00;100958.18;112150;1246;21982;-80
2023/11/19 00:52:03;;;;;;;81.10;62.10;;;;;;;0.77;100.00;100971.34;112592;1241;22705;-81
2023/11/19 00:55:08;;;;;;;81.60;61.30;;;;;;;0.84;100.00;100971.09;112570;1241;21971;-79
2023/11/19 00:58:22;;;;;;;;;;;;;;;;;;;;;
2023/11/19 01:01:21;;;;;;;82.70;63.30;;;;;;;0.89;100.00;100948.52;112965;1241;23013;-81
2023/11/19 01:04:00;;;;;;;80.20;63.90;;;;;;;0.93;100.00;100951.66;112682;1241;23008;-81
2023/11/19 01:06:47;;;;;;;79.70;64.40;;;;;;;0.92;100.00;100944.27;112973;1241;21952;-82
2023/11/19 01:09:47;;;;;;;79.90;61.70;;;;;;;0.87;100.00;100929.30;112772;1238;21950;-81
2023/11/19 01:12:48;;;;;;;74.20;60.60;;;;;;;0.82;100.00;100913.31;112700;1241;21993;-81
2023/11/19 01:15:43;;;;;;;73.20;60.30;;;;;;;0.81;100.00;100902.52;112283;1245;23687;-81
2023/11/19 01:18:35;;;;;;;80.50;64.50;;;;;;;0.82;100.00;100890.36;112369;1239;21941;-80
2023/11/19 01:21:14;;;;;;;78.90;64.90;;;;;;;0.80;100.00;100876.11;112811;1239;21920;-81
2023/11/19 01:24:07;;;;;;;79.50;63.90;;;;;;;0.76;100.00;100868.52;112770;1239;21976;-83
2023/11/19 01:26:59;;;;;;;;;;;;;;;0.76;100.00;100862.02;112858;1239;22040;-82
2023/11/19 01:29:53;;;;;;;;;;;;;;;0.65;100.00;100859.52;112328;1245;22281;-80
2023/11/19 01:32:56;;;;;;;64.80;51.70;;;;;;;0.57;100.00;100853.08;112385;1241;23625;-80
2023/11/19 01:35:58;;;;;;;63.80;52.70;;;;;;;0.57;100.00;100845.71;112988;1241;21976;-80
2023/11/19 01:38:44;;;;;;;73.60;53.30;;;;;;;0.55;100.00;100837.13;112606;1241;23072;-80
2023/11/19 01:41:28;;;;;;;61.30;50.40;;;;;;;0.51;100.00;100831.44;112577;1240;21953;-80
2023/11/19 01:44:26;;;;;;;57.80;49.20;;;;;;;0.45;100.00;100822.46;112720;1240;22189;-80
2023/11/19 01:47:09;;;;;;;62.10;49.90;;;;;;;0.38;100.00;100815.54;112931;1234;21972;-80
2023/11/19 01:50:01;;;;;;;63.40;49.10;;;;;;;0.35;100.00;100815.69;113490;1234;23031;-81
2023/11/19 01:53:04;;;;;;;68.80;49.70;;;;;;;0.35;100.00;100812.59;113588;1234;22958;-82
2023/11/19 01:55:43;;;;;;;51.90;44.30;;;;;;;0.32;100.00;100806.23;113234;1234;21951;-81
2023/11/19 01:58:33;;;;;;;68.60;47.40;;;;;;;0.30;100.00;100797.30;113596;1234;21994;-80
2023/11/19 02:01:15;;;;;;;57.80;45.30;;;;;;;0.28;100.00;100791.11;113352;1234;21942;-81
2023/11/19 02:04:13;;;;;;;54.80;45.60;;;;;;;0.27;100.00;100790.93;113568;1234;21932;-80
2023/11/19 02:06:58;;;;;;;53.50;44.80;;;;;;;0.25;100.00;100793.98;113522;1234;21948;-83
2023/11/19 02:09:42;;;;;;;49.80;42.60;;;;;;;0.25;100.00;100795.00;112755;1241;21962;-81
2023/11/19 02:12:25;;;;;;;48.50;41.80;;;;;;;0.24;100.00;100792.60;112686;1240;21964;-81
2023/11/19 02:15:30;;;;;;;;;;;;;;;0.24;100.00;100783.54;112766;1241;22432;-81
2023/11/19 02:18:34;;;;;;;48.70;42.60;;;;;;;0.14;100.00;100764.60;112961;1241;21937;-81
2023/11/19 02:21:25;;;;;;;49.50;40.90;;;;;;;0.14;100.00;100759.46;112598;1241;22014;-82
2023/11/19 02:24:18;;;;;;;50.50;41.80;;;;;;;0.18;100.00;100764.98;112766;1241;23684;-80
2023/11/19 02:27:32;;;;;;;55.10;43.20;;;;;;;0.21;100.00;100761.75;112870;1234;22556;-82
2023/11/19 02:30:36;;;;;;;48.00;40.00;;;;;;;0.19;100.00;100757.63;113455;1234;22717;-82
2023/11/19 02:33:52;;;;;;;46.40;38.20;;;;;;;0.17;100.00;100743.58;112196;1247;21985;-80
2023/11/19 02:36:47;;;;;;;48.80;40.30;;;;;;;0.16;100.00;100738.60;111993;1247;21987;-81
2023/11/19 02:39:28;;;;;;;45.90;39.90;;;;;;;0.19;100.00;100730.25;112011;1247;23693;-81
2023/11/19 02:42:11;;;;;;;44.30;38.00;;;;;;;0.23;100.00;100724.80;112204;1247;21971;-81
2023/11/19 02:45:13;;;;;;;41.00;35.70;;;;;;;0.24;100.00;100717.96;111999;1247;21978;-80
2023/11/19 02:47:53;;;;;;;43.90;37.30;;;;;;;0.12;100.00;100699.02;111943;1247;21974;-80
2023/11/19 02:50:50;;;;;;;42.90;35.50;;;;;;;0.25;100.00;100718.83;111964;1248;21985;-82
2023/11/19 02:53:37;;;;;;;43.40;36.10;;;;;;;0.23;100.00;100711.45;112185;1247;23591;-81
2023/11/19 02:56:25;;;;;;;46.70;38.70;;;;;;;0.21;100.00;100709.05;111981;1247;22826;-81
2023/11/19 02:59:02;;;;;;;45.00;36.60;;;;;;;0.22;100.00;100712.82;112920;1241;22122;-81
2023/11/19 03:01:50;;;;;;;42.50;37.90;;;;;;;0.21;100.00;100718.27;112925;1241;22247;-80
2023/11/19 03:04:48;;;;;;;42.90;36.20;;;;;;;0.19;100.00;100715.88;112182;1247;23682;-81
2023/11/19 03:07:47;;;;;;;41.70;37.00;;;;;;;0.17;100.00;100708.33;111972;1251;21985;-82
2023/11/19 03:10:22;;;;;;;42.80;36.00;;;;;;;0.22;100.00;100702.54;112066;1245;23711;-79
2023/11/19 03:12:52;;;;;;;43.30;36.10;;;;;;;0.26;100.00;100696.94;112501;1238;21962;-82
2023/11/19 03:15:28;;;;;;;42.90;36.70;;;;;;;0.30;100.00;100691.48;112521;1245;21979;-81
2023/11/19 03:18:14;;;;;;;41.60;35.30;;;;;;;0.31;100.00;100686.20;112187;1248;21963;-82
2023/11/19 03:21:14;;;;;;;42.50;35.50;;;;;;;0.26;100.00;100681.88;112027;1249;21976;-80
2023/11/19 03:24:23;;;;;;;39.10;34.50;;;;;;;0.24;100.00;100676.71;112558;1244;21953;-81
2023/11/19 03:27:07;;;;;;;37.60;32.90;;;;;;;0.21;100.00;100668.48;112550;1244;22439;-81
2023/11/19 03:30:17;;;;;;;39.10;33.60;;;;;;;0.21;100.00;100665.23;112526;1244;21961;-81
2023/11/19 03:33:10;;;;;;;42.70;34.70;;;;;;;0.21;100.00;100663.51;112516;1245;21949;-79
2023/11/19 03:36:10;;;;;;;40.70;34.20;;;;;;;0.20;100.00;100652.04;112559;1239;22022;-80
2023/11/19 03:39:18;;;;;;;39.20;35.00;;;;;;;0.16;100.00;100648.06;112434;1241;21982;-81
2023/11/19 03:42:02;;;;;;;38.70;34.20;;;;;;;0.12;100.00;100633.64;112871;1241;22020;-80
2023/11/19 03:44:35;;;;;;;37.40;31.30;;;;;;;0.06;100.00;100621.62;113016;1241;23751;-82
2023/11/19 03:47:20;;;;;;;41.20;35.40;;;;;;;0.03;100.00;100618.34;112521;1245;22763;-80
2023/11/19 03:49:58;;;;;;;41.40;35.20;;;;;;;-0.00;100.00;100614.36;112545;1244;23567;-80
2023/11/19 03:52:57;;;;;;;41.80;34.90;;;;;;;-0.00;100.00;100614.36;112294;1245;21982;-82
2023/11/19 03:55:38;;;;;;;40.70;34.40;;;;;;;-0.03;100.00;100611.77;112232;1245;22960;-79
2023/11/19 03:58:26;;;;;;;38.20;33.70;;;;;;;-0.16;100.00;100588.38;112240;1245;21988;-81
2023/11/19 04:01:15;;;;;;;38.90;34.20;;;;;;;0.00;100.00;100602.56;112216;1245;21989;-81
2023/11/19 04:04:12;;;;;;;;;;;;;;;0.03;100.00;100587.36;112651;1242;23738;-82
2023/11/19 04:06:59;;;;;;;36.50;31.90;;;;;;;-0.04;100.00;100582.86;113077;1236;21923;-81
2023/11/19 04:09:38;;;;;;;40.50;32.20;;;;;;;-0.03;100.00;100577.90;112871;1241;22410;-81
2023/11/19 04:12:25;;;;;;;34.20;29.80;;;;;;;0.01;100.00;100572.11;113094;1241;23641;-82
2023/11/19 04:15:12;;;;;;;39.90;32.10;;;;;;;0.03;100.00;100569.23;112030;1247;22131;-81
2023/11/19 04:18:00;;;;;;;33.30;29.70;;;;;;;0.04;100.00;100573.84;112280;1246;21981;-81
2023/11/19 04:21:13;;;;;;;36.30;30.90;;;;;;;0.05;100.00;100568.89;112193;1247;21988;-80
2023/11/19 04:24:18;;;;;;;38.70;33.70;;;;;;;0.08;100.00;100567.39;111887;1251;21984;-81
2023/11/19 04:26:59;;;;;;;37.00;32.80;;;;;;;0.11;100.00;100561.77;111796;1248;22014;-80
2023/11/19 04:30:03;;;;;;;34.00;30.10;;;;;;;0.17;100.00;100545.38;112428;1245;21977;-80
2023/11/19 04:32:48;;;;;;;35.80;31.80;;;;;;;0.20;100.00;100537.02;112526;1241;21981;-81
2023/11/19 04:35:40;;;;;;;37.10;33.20;;;;;;;0.23;100.00;100526.93;112966;1241;21979;-80
2023/11/19 04:38:52;;;;;;;37.10;29.80;;;;;;;0.25;100.00;100512.90;112630;1241;21947;-82
2023/11/19 04:41:25;;;;;;;33.80;29.10;;;;;;;0.26;100.00;100503.51;112777;1235;21965;-82
2023/11/19 04:44:12;;;;;;;32.50;28.90;;;;;;;0.27;100.00;100503.34;112654;1241;24416;-82
2023/11/19 04:46:47;;;;;;;35.80;30.70;;;;;;;0.28;100.00;100501.29;113003;1241;23485;-82
2023/11/19 04:49:46;;;;;;;34.40;30.20;;;;;;;0.31;100.00;100493.95;112855;1241;21976;-80
2023/11/19 04:52:22;;;;;;;33.80;28.10;;;;;;;0.34;100.00;100484.39;113036;1241;21966;-82
2023/11/19 04:55:06;;;;;;;30.30;26.80;;;;;;;0.36;100.00;100479.10;113113;1239;22022;-79
2023/11/19 04:57:42;;;;;;;32.00;28.50;;;;;;;0.37;100.00;100481.49;112711;1241;23609;-80
2023/11/19 05:00:30;;;;;;;30.90;27.50;;;;;;;0.39;100.00;100477.21;112993;1241;21965;-80
2023/11/19 05:03:11;;;;;;;32.20;28.80;;;;;;;0.43;100.00;100465.94;112535;1241;22385;-79
2023/11/19 05:05:54;;;;;;;30.90;27.80;;;;;;;0.49;100.00;100460.32;112672;1241;21956;-79
2023/11/19 05:08:34;;;;;;;31.20;27.70;;;;;;;0.51;100.00;100451.09;112385;1241;23701;-79
2023/11/19 05:11:17;;;;;;;29.80;26.70;;;;;;;0.51;100.00;100439.95;112566;1241;23021;-80
2023/11/19 05:14:24;;;;;;;31.70;27.30;;;;;;;0.47;100.00;100434.45;112987;1240;23686;-81
2023/11/19 05:17:16;;;;;;;30.90;27.50;;;;;;;0.46;100.00;100434.97;112787;1241;21966;-79
2023/11/19 05:20:03;;;;;;;29.60;26.30;;;;;;;0.49;100.00;100437.21;112700;1241;21963;-80
2023/11/19 05:23:06;;;;;;;28.70;25.60;;;;;;;0.49;100.00;100442.52;112892;1241;22715;-78
2023/11/19 05:25:52;;;;;;;30.40;26.40;;;;;;;0.49;100.00;100445.95;112389;1241;23703;-80
2023/11/19 05:28:30;;;;;;;31.20;26.60;;;;;;;0.53;100.00;100440.65;112180;1247;21981;-80
2023/11/19 05:31:23;;;;;;;36.90;29.00;;;;;;;0.57;100.00;100442.20;112126;1247;21968;-81
2023/11/19 05:34:03;;;;;;;33.70;29.10;;;;;;;0.58;100.00;100443.08;112062;1247;21969;-80
2023/11/19 05:36:54;;;;;;;30.50;27.00;;;;;;;0.63;100.00;100445.84;112233;1246;21971;-81
2023/11/19 05:39:39;;;;;;;33.60;29.60;;;;;;;0.67;100.00;100444.48;111721;1251;21989;-81
2023/11/19 05:42:31;;;;;;;30.20;27.00;;;;;;;0.68;100.00;100437.81;111908;1251;22383;-81
2023/11/19 05:45:16;;;;;;;30.40;26.90;;;;;;;0.66;100.00;100427.34;111895;1251;21964;-79
2023/11/19 05:48:05;;;;;;;32.50;29.00;;;;;;;0.65;100.00;100421.19;111686;1247;23069;-80
2023/11/19 05:50:55;;;;;;;30.30;26.70;;;;;;;0.69;100.00;100425.14;111705;1251;21952;-80
2023/11/19 05:53:27;;;;;;;31.00;27.90;;;;;;;0.72;100.00;100422.23;111773;1251;22005;-79
2023/11/19 05:56:09;;;;;;;32.20;27.90;;;;;;;0.74;100.00;100420.52;111882;1252;22010;-80
2023/11/19 05:58:45;;;;;;;32.00;27.80;;;;;;;0.78;100.00;100416.95;111380;1255;22818;-80
2023/11/19 06:01:31;;;;;;;31.20;27.90;;;;;;;0.78;100.00;100411.98;111628;1250;21973;-81
2023/11/19 06:04:23;;;;;;;34.50;29.20;;;;;;;0.77;100.00;100403.41;111861;1247;22580;-83
2023/11/19 06:07:05;;;;;;;30.80;27.30;;;;;;;0.78;100.00;100390.55;112024;1245;21978;-81
2023/11/19 06:09:56;;;;;;;31.20;28.00;;;;;;;0.76;100.00;100382.85;111904;1248;21978;-81
2023/11/19 06:12:38;;;;;;;32.20;27.70;;;;;;;0.75;100.00;100376.00;111995;1249;21994;-81
2023/11/19 06:15:34;;;;;;;32.80;28.70;;;;;;;0.71;100.00;100371.02;111111;1259;22020;-81
2023/11/19 06:18:34;;;;;;;29.90;26.30;;;;;;;0.69;100.00;100362.61;111667;1251;23605;-78
2023/11/19 06:21:14;;;;;;;31.00;26.30;;;;;;;0.71;100.00;100362.45;111171;1258;22004;-79
2023/11/19 06:23:55;;;;;;;32.10;28.30;;;;;;;0.76;100.00;100364.85;111026;1261;23932;-81
2023/11/19 06:26:51;;;;;;;29.80;26.60;;;;;;;0.80;100.00;100367.27;111038;1258;22095;-81
2023/11/19 06:29:56;;;;;;;29.90;26.70;;;;;;;0.83;100.00;100354.59;111252;1256;22028;-77
2023/11/19 06:32:47;;;;;;;30.00;26.80;;;;;;;0.83;100.00;100341.75;111086;1254;22115;-80
2023/11/19 06:35:24;;;;;;;33.70;30.00;;;;;;;0.81;100.00;100334.04;111155;1253;23040;-78
2023/11/19 06:37:58;;;;;;;35.30;28.90;;;;;;;0.63;100.00;100311.22;111426;1253;21975;-81
2023/11/19 06:40:41;;;;;;;32.20;28.30;;;;;;;0.71;100.00;100328.70;111827;1249;23030;-81
2023/11/19 06:43:43;;;;;;;30.60;26.00;;;;;;;0.68;100.00;100307.98;111940;1246;22000;-81
2023/11/19 06:46:33;;;;;;;31.20;26.40;;;;;;;0.81;100.00;100316.21;111970;1245;21955;-79
2023/11/19 06:49:17;;;;;;;30.50;26.20;;;;;;;0.86;100.00;100298.41;112256;1245;23394;-80
2023/11/19 06:52:11;;;;;;;41.40;34.50;;;;;;;0.89;100.00;100298.23;111987;1246;22302;-81
2023/11/19 06:55:03;;;;;;;31.30;27.60;;;;;;;0.85;100.00;100291.03;111886;1253;22050;-80
2023/11/19 06:57:43;;;;;;;31.50;27.80;;;;;;;0.83;100.00;100279.90;111637;1253;21993;-80
2023/11/19 07:00:36;;;;;;;30.30;26.90;;;;;;;0.82;100.00;100270.13;111658;1252;22966;-82
2023/11/19 07:03:14;;;;;;;29.60;26.00;;;;;;;0.81;100.00;100259.50;111602;1252;23128;-80
2023/11/19 07:05:48;;;;;;;40.50;34.70;;;;;;;0.83;100.00;100251.45;111344;1258;22686;-80
2023/11/19 07:08:32;;;;;;;49.00;38.30;;;;;;;0.90;100.00;100254.38;111186;1254;21953;-81
2023/11/19 07:11:17;;;;;;;39.50;35.00;;;;;;;0.93;100.00;100251.81;111574;1251;21974;-81
2023/11/19 07:14:08;;;;;;;33.70;29.40;;;;;;;0.95;100.00;100248.39;111941;1247;21981;-80
2023/11/19 07:17:01;;;;;;;30.90;27.10;;;;;;;0.96;100.00;100240.33;111405;1252;22017;-78
2023/11/19 07:20:00;;;;;;;31.20;27.90;;;;;;;0.96;100.00;100232.79;111391;1255;21974;-77
2023/11/19 07:22:38;;;;;;;32.80;29.60;;;;;;;0.97;100.00;100224.90;111248;1255;21966;-81
2023/11/19 07:25:31;;;;;;;30.80;27.60;;;;;;;1.00;100.00;100212.05;111941;1247;23622;-83
2023/11/19 07:28:44;;;;;;;31.20;27.70;;;;;;;1.03;100.00;100208.62;111769;1252;21964;-81
2023/11/19 07:31:37;;;;;;;32.70;29.30;;;;;;;1.00;100.00;100207.93;111248;1260;21989;-84
2023/11/19 07:34:17;;;;;;;30.60;27.30;;;;;;;1.00;100.00;100204.33;111117;1260;22011;-82
2023/11/19 07:37:06;;;;;;;31.90;28.10;;;;;;;1.02;100.00;100201.77;110613;1262;22022;-82
2023/11/19 07:39:51;;;;;;;30.90;27.00;;;;;;;1.04;100.00;100189.25;110582;1262;22944;-82
2023/11/19 07:42:47;;;;;;;31.80;28.50;;;;;;;1.06;100.00;100185.98;110928;1262;21842;-85
2023/11/19 07:45:45;;;;;;;31.70;28.20;;;;;;;1.09;100.00;100181.55;110915;1258;22007;-84
2023/11/19 07:48:36;;;;;;;31.90;28.50;;;;;;;1.12;100.00;100181.70;111309;1258;23707;-81
2023/11/19 07:54:21;;;;;;;31.20;27.90;;;;;;;1.21;100.00;100178.41;110930;1255;22006;-82
2023/11/19 07:57:14;;;;;;;37.60;31.60;;;;;;;1.25;100.00;100175.67;111302;1255;21990;-80
2023/11/19 08:00:12;;;;;;;39.20;33.30;;;;;;;1.30;100.00;100164.17;111396;1255;21992;-80
2023/11/19 08:02:59;;;;;;;37.40;32.30;;;;;;;1.36;100.00;100165.00;111358;1255;22195;-80
2023/11/19 08:06:02;;;;;;;44.70;38.80;;;;;;;1.41;100.00;100155.90;111053;1257;22000;-82
2023/11/19 08:08:58;;;;;;;;;;;;;;;;;;;;;
2023/11/19 08:12:35;;;;;;;31.90;28.40;;;;;;;1.51;100.00;100137.68;111309;1253;23105;-79
2023/11/19 08:15:11;;;;;;;33.00;29.60;;;;;;;1.53;100.00;100145.22;111202;1253;23044;-76
2023/11/19 08:17:44;;;;;;;33.80;29.40;;;;;;;1.58;100.00;100149.14;111093;1253;21967;-77
2023/11/19 08:20:24;;;;;;;33.70;30.10;;;;;;;1.64;100.00;100148.59;111047;1253;23747;-76
2023/11/19 08:23:03;;;;;;;32.70;29.20;;;;;;;1.68;100.00;100144.98;111090;1249;21966;-75
2023/11/19 08:25:42;;;;;;;37.30;31.90;;;;;;;1.72;100.00;100145.48;111537;1249;21971;-75
2023/11/19 08:28:41;;;;;;;79.10;62.90;;;;;;;1.61;100.00;100117.21;112290;1243;24349;-75
2023/11/19 08:31:35;;;;;;;152.00;121.60;;;;;;;1.77;100.00;100131.21;112615;1234;21960;-76
2023/11/19 08:34:56;;;;;;;72.60;64.50;;;;;;;1.82;100.00;100124.33;109201;1234;5162681;-76
2023/11/19 08:37:32;;;;;;;67.60;58.30;;;;;;;1.90;100.00;100119.47;113172;1234;21949;-78
2023/11/19 08:40:22;;;;;;;61.00;48.60;;;;;;;1.96;100.00;100107.42;113252;1234;24389;-77
2023/11/19 08:43:16;;;;;;;42.90;38.20;;;;;;;2.05;100.00;100100.33;113214;1234;21939;-77
2023/11/19 08:46:12;;;;;;;43.60;35.10;;;;;;;2.06;100.00;100084.53;112283;1241;24277;-78
2023/11/19 08:48:56;;;;;;;59.20;52.70;;;;;;;2.10;100.00;100078.14;112111;1246;23131;-76
2023/11/19 08:51:42;;;;;;;33.60;30.00;;;;;;;2.17;100.00;100075.86;111724;1246;23629;-75
2023/11/19 08:54:38;;;;;;;38.80;31.40;;;;;;;2.22;100.00;100072.21;111898;1246;21980;-77
2023/11/19 08:57:53;;;;;;;34.10;30.20;;;;;;;2.22;100.00;100068.11;111872;1246;22716;-77
2023/11/19 09:01:03;;;;;;;34.40;30.60;;;;;;;2.24;100.00;100056.06;111890;1246;23600;-78
2023/11/19 09:03:59;;;;;;;35.50;31.70;;;;;;;2.23;100.00;100058.30;112101;1246;23783;-75
2023/11/19 09:06:54;;;;;;;35.60;30.90;;;;;;;2.20;100.00;100055.06;112323;1241;21990;-75
2023/11/19 09:09:42;;;;;;;35.50;31.70;;;;;;;2.21;100.00;100050.60;112328;1234;21938;-76
2023/11/19 09:12:31;;;;;;;38.10;34.00;;;;;;;2.24;100.00;100043.87;112702;1239;21980;-77
2023/11/19 09:15:14;;;;;;;40.10;33.90;;;;;;;2.29;100.00;100037.82;112663;1236;21954;-74
2023/11/19 09:17:50;;;;;;;40.60;35.10;;;;;;;2.31;100.00;100028.17;112546;1239;23765;-75
2023/11/19 09:20:45;;;;;;;37.30;32.10;;;;;;;2.29;100.00;100018.58;112270;1242;24370;-75
2023/11/19 09:23:50;;;;;;;;;;;;;;;;;;;;;
2023/11/19 09:26:41;;;;;;;38.70;34.50;;;;;;;2.19;100.00;100011.13;112211;1242;23761;-77
2023/11/19 09:29:43;;;;;;;47.60;38.30;;;;;;;2.19;100.00;100005.46;111656;1245;21975;-75
2023/11/19 09:32:25;;;;;;;42.50;36.70;;;;;;;2.19;100.00;99996.53;111931;1245;23535;-75
2023/11/19 09:35:01;;;;;;;48.00;39.80;;;;;;;2.18;100.00;99990.02;112087;1244;21963;-77
2023/11/19 09:37:51;;;;;;;49.00;41.30;;;;;;;2.16;100.00;99983.33;111985;1241;21973;-77
2023/11/19 09:40:33;;;;;;;44.80;38.40;;;;;;;2.12;100.00;99983.04;111831;1246;21963;-76
2023/11/19 09:43:11;;;;;;;46.60;38.50;;;;;;;2.03;100.00;99973.16;111672;1246;21968;-76
2023/11/19 09:45:53;;;;;;;45.70;38.20;;;;;;;1.96;100.00;99969.95;111874;1246;23691;-76
2023/11/19 09:48:25;;;;;;;54.90;46.40;;;;;;;1.91;100.00;99959.36;112411;1241;23734;-77
2023/11/19 09:51:03;;;;;;;46.30;39.00;;;;;;;1.88;100.00;99955.11;112366;1233;23015;-76
2023/11/19 09:53:46;;;;;;;44.10;39.40;;;;;;;1.83;100.00;99953.25;112265;1241;21952;-83
2023/11/19 09:56:36;;;;;;;47.60;42.30;;;;;;;1.73;100.00;99947.50;111994;1247;21984;-79
2023/11/19 09:59:27;;;;;;;51.90;42.70;;;;;;;1.56;100.00;99930.83;112085;1241;22097;-82
2023/11/19 10:02:21;;;;;;;71.00;59.70;;;;;;;1.50;100.00;99920.06;112603;1241;21966;-79
2023/11/19 10:05:14;;;;;;;49.10;42.00;;;;;;;1.51;100.00;99931.70;112317;1241;23864;-81
2023/11/19 10:08:13;;;;;;;55.40;47.00;;;;;;;1.47;100.00;99931.58;112625;1241;23021;-80
2023/11/19 10:10:57;;;;;;;67.20;54.00;;;;;;;1.42;100.00;99926.98;112576;1241;22059;-80
2023/11/19 10:13:42;;;;;;;53.30;44.40;;;;;;;1.29;100.00;99905.99;112903;1234;22222;-80
2023/11/19 10:16:27;;;;;;;58.20;48.70;;;;;;;1.41;100.00;99915.34;112737;1241;21985;-80
2023/11/19 10:19:31;;;;;;;;;;;;;;;;;;;;;
2023/11/19 10:22:08;;;;;;;48.60;39.90;;;;;;;1.34;100.00;99905.60;112749;1239;21945;-79
2023/11/19 10:24:47;;;;;;;51.90;44.90;;;;;;;1.33;100.00;99900.98;112555;1241;23607;-79
2023/11/19 10:27:31;;;;;;;51.40;42.70;;;;;;;1.29;100.00;99888.67;112787;1241;23607;-82
2023/11/19 10:30:24;;;;;;;51.30;43.90;;;;;;;1.29;100.00;99889.70;112432;1241;21994;-81
2023/11/19 10:33:20;;;;;;;50.00;43.10;;;;;;;1.21;100.00;99884.45;112360;1245;23774;-81
2023/11/19 10:36:00;;;;;;;57.00;48.90;;;;;;;1.16;100.00;99876.42;113132;1240;22638;-82
2023/11/19 10:39:04;;;;;;;68.10;57.10;;;;;;;1.14;100.00;99872.84;113224;1239;21923;-81
2023/11/19 10:45:33;;;;;;;53.40;44.70;;;;;;;1.04;100.00;99855.08;113504;1238;21905;-82
2023/11/19 10:48:18;;;;;;;64.30;50.20;;;;;;;1.03;100.00;99853.02;112454;1245;21988;-80
2023/11/19 10:51:22;;;;;;;61.00;47.50;;;;;;;1.05;100.00;99845.31;112839;1241;21923;-82
2023/11/19 10:54:19;;;;;;;92.90;66.10;;;;;;;1.04;100.00;99846.16;112784;1241;22019;-81
2023/11/19 10:56:58;;;;;;;58.50;47.80;;;;;;;1.06;100.00;99846.15;112879;1241;21955;-83
2023/11/19 11:00:03;;;;;;;67.20;52.70;;;;;;;1.10;100.00;99846.64;112809;1241;22006;-80
2023/11/19 11:02:49;;;;;;;63.10;50.20;;;;;;;1.10;100.00;99847.48;112060;1247;22968;-81
2023/11/19 11:05:49;;;;;;;61.70;46.80;;;;;;;1.09;100.00;99841.16;111978;1241;21962;-82
2023/11/19 11:08:32;;;;;;;57.10;45.10;;;;;;;1.06;100.00;99842.21;112649;1241;21966;-81
2023/11/19 11:11:19;;;;;;;71.30;51.80;;;;;;;1.07;100.00;99839.47;113114;1241;23734;-79
2023/11/19 11:14:01;;;;;;;79.90;55.90;;;;;;;1.09;100.00;99831.06;112179;1247;21979;-81
2023/11/19 11:16:45;;;;;;;80.10;58.80;;;;;;;1.13;100.00;99826.56;111975;1247;21966;-80
2023/11/19 11:19:27;;;;;;;61.70;48.90;;;;;;;1.12;100.00;99821.61;111991;1246;22688;-81
2023/11/19 11:21:58;;;;;;;50.10;43.40;;;;;;;1.10;100.00;99817.34;111924;1250;21969;-79
2023/11/19 11:25:46;;;;;;;60.10;46.50;;;;;;;1.08;100.00;99809.98;111814;1250;21952;-79
2023/11/19 11:28:48;;;;;;;56.70;43.40;;;;;;;1.02;100.00;99805.23;112359;1245;21987;-81
2023/11/19 11:32:34;;;;;;;93.50;60.10;;;;;;;1.00;100.00;99800.27;111646;1246;23635;-81
2023/11/19 11:35:45;;;;;;;53.40;42.30;;;;;;;1.00;100.00;99794.63;112006;1246;21988;-80
2023/11/19 11:38:40;;;;;;;64.00;51.30;;;;;;;0.99;100.00;99790.00;112144;1246;22038;-80
2023/11/19 11:42:20;;;;;;;57.30;44.90;;;;;;;0.97;100.00;99786.41;112707;1241;23082;-80
2023/11/19 11:45:12;;;;;;;66.30;48.60;;;;;;;0.98;100.00;99786.92;112998;1241;21960;-79
2023/11/19 11:47:59;;;;;;;57.10;43.80;;;;;;;0.99;100.00;99784.36;112151;1247;22802;-81
2023/11/19 11:50:57;;;;;;;54.80;43.60;;;;;;;1.02;100.00;99780.55;112160;1247;23024;-81
2023/11/19 11:53:35;;;;;;;68.80;49.50;;;;;;;1.06;100.00;99776.41;112197;1247;21989;-80
2023/11/19 11:56:41;;;;;;;52.30;41.50;;;;;;;1.11;100.00;99779.11;112321;1247;22136;-80
2023/11/19 11:59:55;;;;;;;58.80;43.50;;;;;;;1.12;100.00;99768.31;112143;1247;23584;-80
2023/11/19 12:02:40;;;;;;;51.20;39.70;;;;;;;1.11;100.00;99751.69;112297;1244;22334;-80
2023/11/19 12:05:17;;;;;;;55.70;42.20;;;;;;;1.09;100.00;99742.11;112199;1242;21983;-81
2023/11/19 12:08:33;;;;;;;52.40;42.90;;;;;;;1.11;100.00;99744.84;111948;1242;22664;-81
2023/11/19 12:11:13;;;;;;;70.10;49.10;;;;;;;1.08;100.00;99739.03;112822;1242;22457;-79
2023/11/19 12:14:02;;;;;;;50.70;40.90;;;;;;;1.09;100.00;99726.86;112675;1241;23610;-80
2023/11/19 12:17:39;;;;;;;62.90;49.40;;;;;;;1.09;100.00;99722.23;112779;1241;21958;-83
2023/11/19 12:20:26;;;;;;;68.80;51.30;;;;;;;1.10;100.00;99716.23;112890;1241;22869;-79
2023/11/19 12:23:47;;;;;;;54.30;42.60;;;;;;;1.13;100.00;99707.62;112166;1248;22864;-81
2023/11/19 12:27:00;;;;;;;67.30;48.80;;;;;;;1.14;100.00;99705.90;112032;1245;22721;-81
2023/11/19 12:29:44;;;;;;;47.60;35.90;;;;;;;1.15;100.00;99697.67;112155;1245;23688;-79
2023/11/19 12:32:54;;;;;;;37.90;31.40;;;;;;;1.15;100.00;99695.95;112166;1243;22362;-79
2023/11/19 12:36:55;;;;;;;62.10;41.20;;;;;;;1.13;100.00;99689.64;111088;1256;22722;-79
2023/11/19 12:39:31;;;;;;;49.90;38.90;;;;;;;1.14;100.00;99676.43;111152;1256;21980;-79
2023/11/19 12:42:07;;;;;;;39.80;32.10;;;;;;;1.21;100.00;99671.55;111135;1256;23027;-77
2023/11/19 12:45:06;;;;;;;58.90;43.40;;;;;;;1.23;100.00;99669.30;111322;1252;23731;-78
2023/11/19 12:47:48;;;;;;;42.50;36.10;;;;;;;1.26;100.00;99670.13;110978;1257;21972;-77
2023/11/19 12:50:28;;;;;;;50.10;38.40;;;;;;;1.29;100.00;99667.88;111245;1257;21963;-81
2023/11/19 12:53:07;;;;;;;39.00;31.60;;;;;;;1.32;100.00;99669.55;110858;1257;23616;-79
2023/11/19 12:55:52;;;;;;;39.40;32.30;;;;;;;1.23;100.00;99648.57;111145;1257;22974;-81
2023/11/19 12:58:52;;;;;;;47.30;36.20;;;;;;;1.24;100.00;99641.54;111039;1257;22113;-79
2023/11/19 13:02:05;;;;;;;50.80;42.70;;;;;;;1.37;100.00;99651.84;111501;1252;24325;-78
2023/11/19 13:04:47;;;;;;;49.20;38.70;;;;;;;1.36;100.00;99644.13;111544;1252;22890;-80
2023/11/19 13:07:51;;;;;;;66.50;47.50;;;;;;;1.36;100.00;99634.02;112639;1242;22439;-80
2023/11/19 13:10:32;;;;;;;43.40;35.70;;;;;;;1.40;100.00;99631.06;112628;1242;21972;-78